createdAt,value
2022-10-01T00:00:05.598Z,9.34
2022-10-01T00:02:38.295Z,9.35
2022-10-01T00:05:07.366Z,9.12
2022-10-01T00:08:00.107Z,9.07
2022-10-01T00:10:26.815Z,9.03
2022-10-01T00:12:53.475Z,8.83
2022-10-01T00:15:21.684Z,9.14
2022-10-01T00:17:48.627Z,9.47
2022-10-01T00:20:15.730Z,9.44
2022-10-01T00:22:42.419Z,9.35
2022-10-01T00:25:09.071Z,9.07
2022-10-01T00:27:36.158Z,9.03
2022-10-01T00:30:05.547Z,9.08
2022-10-01T00:32:32.418Z,9.08
2022-10-01T00:35:00.649Z,8.90
2022-10-01T00:37:27.591Z,8.87
2022-10-01T00:39:54.255Z,8.88
2022-10-01T00:42:23.980Z,8.90
2022-10-01T00:44:51.427Z,9.30
2022-10-01T00:47:56.817Z,8.79
2022-10-01T00:50:34.879Z,8.96
2022-10-01T00:53:05.133Z,8.75
2022-10-01T00:55:40.183Z,8.59
2022-10-01T00:58:09.224Z,8.56
2022-10-01T01:00:37.863Z,8.49
2022-10-01T01:03:05.746Z,8.73
2022-10-01T01:05:32.489Z,8.81
2022-10-01T01:08:01.636Z,8.38
2022-10-01T01:11:04.330Z,8.45
2022-10-01T01:14:09.762Z,7.99
2022-10-01T01:16:49.548Z,8.14
2022-10-01T01:19:37.933Z,8.26
2022-10-01T01:22:07.756Z,8.26
2022-10-01T01:24:37.453Z,8.36
2022-10-01T01:27:26.048Z,8.46
2022-10-01T01:30:06.504Z,8.48
2022-10-01T01:32:46.261Z,8.39
2022-10-01T01:35:20.785Z,8.03
2022-10-01T01:37:53.583Z,7.97
2022-10-01T01:40:21.738Z,8.02
2022-10-01T01:42:50.910Z,8.10
2022-10-01T01:45:22.972Z,8.19
2022-10-01T01:47:55.364Z,8.04
2022-10-01T01:50:25.801Z,8.08
2022-10-01T01:52:55.615Z,8.12
2022-10-01T01:55:24.689Z,8.00
2022-10-01T01:57:51.554Z,7.84
2022-10-01T02:00:18.273Z,7.72
2022-10-01T02:02:50.204Z,7.73
2022-10-01T02:05:20.623Z,7.79
2022-10-01T02:07:58.936Z,7.73
2022-10-01T02:10:34.616Z,7.83
2022-10-01T02:13:33.652Z,7.95
2022-10-01T02:16:19.046Z,8.17
2022-10-01T02:19:04.497Z,8.17
2022-10-01T02:21:41.756Z,8.30
2022-10-01T02:24:46.834Z,8.21
2022-10-01T02:27:29.311Z,8.22
2022-10-01T02:30:03.229Z,8.28
2022-10-01T02:32:31.911Z,8.35
2022-10-01T02:35:00.400Z,8.42
2022-10-01T02:37:28.449Z,8.54
2022-10-01T02:39:57.911Z,8.25
2022-10-01T02:42:28.454Z,8.14
2022-10-01T02:45:02.641Z,8.30
2022-10-01T02:47:47.811Z,8.40
2022-10-01T02:50:15.794Z,8.51
2022-10-01T02:53:05.467Z,8.41
2022-10-01T02:55:37.555Z,8.52
2022-10-01T02:58:05.470Z,8.42
2022-10-01T03:00:32.134Z,8.28
2022-10-01T03:02:58.951Z,8.23
2022-10-01T03:05:25.668Z,8.18
2022-10-01T03:07:52.678Z,8.31
2022-10-01T03:10:19.854Z,8.45
2022-10-01T03:12:46.914Z,8.42
2022-10-01T03:15:15.871Z,8.54
2022-10-01T03:17:42.770Z,8.44
2022-10-01T03:20:10.308Z,8.40
2022-10-01T03:22:36.966Z,8.57
2022-10-01T03:25:04.117Z,8.53
2022-10-01T03:27:30.799Z,8.44
2022-10-01T03:29:57.310Z,8.73
2022-10-01T03:32:24.083Z,8.73
2022-10-01T03:34:50.695Z,8.98
2022-10-01T03:37:17.227Z,9.09
2022-10-01T03:39:43.933Z,9.29
2022-10-01T03:42:10.606Z,9.37
2022-10-01T03:44:38.272Z,9.90
2022-10-01T03:47:04.865Z,9.72
2022-10-01T03:49:31.513Z,9.72
2022-10-01T03:51:58.103Z,10.10
2022-10-01T03:54:25.508Z,9.80
2022-10-01T03:56:52.377Z,9.92
2022-10-01T03:59:19.924Z,9.58
2022-10-01T04:01:46.853Z,9.35
2022-10-01T04:04:13.815Z,9.28
2022-10-01T04:06:40.994Z,9.35
2022-10-01T04:09:09.658Z,9.56
2022-10-01T04:11:37.395Z,9.82
2022-10-01T04:14:04.238Z,9.98
2022-10-01T04:16:30.862Z,9.56
2022-10-01T04:18:58.123Z,9.47
2022-10-01T04:21:24.732Z,9.75
2022-10-01T04:23:51.211Z,9.78
2022-10-01T04:26:19.142Z,9.77
2022-10-01T04:28:46.805Z,9.89
2022-10-01T04:31:26.520Z,10.08
2022-10-01T04:33:57.728Z,9.99
2022-10-01T04:36:26.925Z,10.06
2022-10-01T04:38:57.908Z,9.95
2022-10-01T04:41:26.541Z,10.45
2022-10-01T04:43:53.211Z,10.36
2022-10-01T04:46:19.950Z,9.92
2022-10-01T04:48:48.389Z,9.83
2022-10-01T04:51:16.062Z,9.61
2022-10-01T04:53:43.306Z,9.61
2022-10-01T04:56:11.437Z,9.51
2022-10-01T04:58:40.068Z,9.69
2022-10-01T05:01:06.812Z,9.50
2022-10-01T05:03:34.452Z,9.42
2022-10-01T05:06:01.149Z,9.36
2022-10-01T05:08:28.370Z,9.56
2022-10-01T05:10:55.069Z,9.54
2022-10-01T05:13:21.581Z,9.45
2022-10-01T05:15:52.217Z,9.54
2022-10-01T05:18:19.297Z,9.31
2022-10-01T05:20:46.092Z,9.39
2022-10-01T05:23:13.289Z,9.26
2022-10-01T05:25:40.200Z,9.34
2022-10-01T05:28:07.016Z,9.05
2022-10-01T05:30:34.274Z,9.11
2022-10-01T05:33:03.433Z,9.45
2022-10-01T05:35:31.608Z,9.22
2022-10-01T05:38:00.239Z,9.36
2022-10-01T05:40:28.778Z,9.37
2022-10-01T05:43:00.430Z,9.48
2022-10-01T05:45:28.832Z,9.41
2022-10-01T05:48:04.679Z,9.36
2022-10-01T05:50:34.243Z,9.40
2022-10-01T05:53:02.250Z,9.32
2022-10-01T05:55:34.792Z,9.37
2022-10-01T05:58:05.575Z,9.42
2022-10-01T06:00:33.630Z,9.40
2022-10-01T06:03:02.135Z,9.46
2022-10-01T06:05:31.385Z,9.67
2022-10-01T06:07:58.920Z,9.50
2022-10-01T06:10:25.893Z,9.65
2022-10-01T06:12:53.041Z,9.77
2022-10-01T06:15:19.720Z,9.89
2022-10-01T06:17:46.905Z,9.69
2022-10-01T06:20:16.134Z,9.94
2022-10-01T06:22:43.958Z,9.99
2022-10-01T06:25:13.382Z,10.08
2022-10-01T06:27:40.022Z,9.82
2022-10-01T06:30:07.993Z,9.76
2022-10-01T06:32:35.203Z,9.89
2022-10-01T06:35:03.026Z,10.10
2022-10-01T06:37:30.760Z,9.92
2022-10-01T06:39:57.419Z,10.24
2022-10-01T06:42:23.895Z,9.99
2022-10-01T06:44:51.084Z,9.89
2022-10-01T06:47:18.584Z,10.12
2022-10-01T06:49:47.627Z,10.19
2022-10-01T06:52:33.657Z,9.94
2022-10-01T06:55:01.544Z,10.11
2022-10-01T06:57:29.121Z,10.06
2022-10-01T06:59:55.889Z,10.09
2022-10-01T07:02:28.836Z,10.06
2022-10-01T07:04:59.472Z,10.13
2022-10-01T07:07:34.506Z,10.33
2022-10-01T07:10:02.375Z,10.24
2022-10-01T07:12:29.183Z,10.51
2022-10-01T07:14:55.915Z,10.44
2022-10-01T07:17:22.859Z,10.32
2022-10-01T07:19:49.546Z,10.39
2022-10-01T07:22:18.003Z,10.54
2022-10-01T07:24:44.880Z,10.59
2022-10-01T07:27:12.417Z,10.50
2022-10-01T07:29:39.118Z,10.73
2022-10-01T07:32:09.012Z,10.92
2022-10-01T07:34:37.559Z,11.20
2022-10-01T07:37:04.496Z,11.55
2022-10-01T07:39:31.193Z,11.98
2022-10-01T07:41:59.048Z,11.78
2022-10-01T07:44:28.216Z,11.87
2022-10-01T07:46:56.070Z,12.00
2022-10-01T07:49:25.106Z,11.95
2022-10-01T07:51:54.440Z,12.13
2022-10-01T07:54:22.076Z,12.44
2022-10-01T07:56:52.384Z,12.45
2022-10-01T07:59:19.312Z,12.60
2022-10-01T08:01:52.020Z,12.45
2022-10-01T08:04:40.955Z,12.25
2022-10-01T08:07:08.416Z,12.36
2022-10-01T08:09:35.832Z,12.30
2022-10-01T08:12:03.049Z,12.50
2022-10-01T08:14:30.504Z,12.97
2022-10-01T08:16:57.845Z,13.38
2022-10-01T08:19:25.885Z,13.31
2022-10-01T08:21:53.234Z,13.10
2022-10-01T08:24:20.229Z,13.19
2022-10-01T08:26:53.338Z,13.41
2022-10-01T08:29:20.428Z,13.35
2022-10-01T08:31:47.543Z,13.26
2022-10-01T08:34:14.802Z,13.61
2022-10-01T08:36:41.419Z,13.67
2022-10-01T08:39:08.333Z,13.47
2022-10-01T08:41:50.467Z,14.03
2022-10-01T08:44:28.194Z,14.41
2022-10-01T08:47:05.398Z,14.58
2022-10-01T08:49:52.000Z,14.38
2022-10-01T08:52:28.729Z,14.97
2022-10-01T08:55:00.178Z,14.95
2022-10-01T08:57:42.136Z,14.62
2022-10-01T09:00:14.925Z,14.76
2022-10-01T09:02:44.832Z,14.76
2022-10-01T09:05:26.527Z,15.00
2022-10-01T09:08:22.914Z,14.87
2022-10-01T09:10:56.457Z,14.92
2022-10-01T09:13:51.801Z,15.08
2022-10-01T09:16:27.279Z,14.71
2022-10-01T09:19:06.212Z,14.60
2022-10-01T09:21:52.292Z,14.46
2022-10-01T09:24:43.578Z,14.32
2022-10-01T09:27:19.185Z,14.56
2022-10-01T09:29:56.541Z,14.04
2022-10-01T09:32:27.867Z,14.42
2022-10-01T09:34:54.930Z,14.24
2022-10-01T09:37:32.452Z,14.28
2022-10-01T09:40:35.861Z,14.52
2022-10-01T09:43:08.246Z,14.36
2022-10-01T09:45:35.171Z,14.15
2022-10-01T09:48:16.435Z,14.02
2022-10-01T09:50:56.441Z,14.29
2022-10-01T09:53:30.543Z,14.41
2022-10-01T09:56:03.583Z,14.06
2022-10-01T09:58:33.494Z,14.27
2022-10-01T10:01:01.516Z,14.19
2022-10-01T10:03:30.854Z,14.31
2022-10-01T10:06:02.212Z,14.37
2022-10-01T10:08:35.931Z,13.99
2022-10-01T10:11:06.627Z,13.95
2022-10-01T10:13:54.528Z,13.92
2022-10-01T10:16:27.081Z,13.85
2022-10-01T10:19:02.297Z,13.75
2022-10-01T10:21:34.027Z,13.91
2022-10-01T10:24:03.459Z,14.01
2022-10-01T10:26:40.025Z,13.94
2022-10-01T10:29:24.449Z,13.95
2022-10-01T10:31:51.945Z,14.38
2022-10-01T10:34:39.827Z,14.27
2022-10-01T10:37:29.945Z,14.15
2022-10-01T10:39:58.253Z,14.29
2022-10-01T10:42:25.964Z,14.49
2022-10-01T10:44:55.429Z,14.13
2022-10-01T10:47:24.290Z,14.38
2022-10-01T10:49:57.648Z,14.85
2022-10-01T10:52:33.443Z,14.86
2022-10-01T10:55:01.819Z,14.53
2022-10-01T10:57:34.831Z,14.90
2022-10-01T11:00:13.973Z,14.68
2022-10-01T11:02:49.042Z,14.89
2022-10-01T11:05:19.371Z,14.37
2022-10-01T11:07:47.881Z,14.34
2022-10-01T11:10:20.426Z,14.35
2022-10-01T11:13:06.664Z,14.11
2022-10-01T11:16:03.236Z,14.19
2022-10-01T11:18:29.849Z,13.91
2022-10-01T11:21:30.381Z,14.40
2022-10-01T11:24:08.765Z,13.92
2022-10-01T11:26:46.218Z,14.06
2022-10-01T11:29:26.762Z,13.64
2022-10-01T11:32:16.795Z,14.06
2022-10-01T11:35:05.533Z,13.76
2022-10-01T11:37:38.882Z,13.93
2022-10-01T11:40:18.947Z,14.23
2022-10-01T11:42:47.829Z,13.67
2022-10-01T11:45:25.596Z,13.48
2022-10-01T11:48:01.430Z,13.56
2022-10-01T11:50:38.517Z,13.75
2022-10-01T11:53:08.998Z,13.65
2022-10-01T11:56:06.987Z,13.87
2022-10-01T11:58:51.735Z,13.69
2022-10-01T12:01:25.014Z,13.49
2022-10-01T12:04:00.586Z,13.59
2022-10-01T12:06:34.234Z,13.37
2022-10-01T12:09:26.662Z,13.81
2022-10-01T12:12:07.318Z,13.59
2022-10-01T12:14:49.339Z,13.39
2022-10-01T12:17:26.135Z,13.37
2022-10-01T12:19:57.139Z,13.18
2022-10-01T12:22:42.783Z,13.34
2022-10-01T12:25:13.302Z,13.22
2022-10-01T12:27:40.156Z,13.09
2022-10-01T12:30:09.929Z,12.92
2022-10-01T12:33:13.807Z,13.06
2022-10-01T12:35:52.263Z,13.09
2022-10-01T12:38:46.463Z,12.82
2022-10-01T12:41:29.256Z,12.38
2022-10-01T12:44:10.595Z,12.60
2022-10-01T12:46:38.045Z,12.53
2022-10-01T12:49:26.586Z,12.38
2022-10-01T12:51:59.245Z,12.20
2022-10-01T12:54:44.415Z,12.41
2022-10-01T12:57:23.043Z,12.12
2022-10-01T13:00:05.171Z,12.49
2022-10-01T13:03:13.824Z,11.82
2022-10-01T13:06:00.128Z,12.06
2022-10-01T13:08:56.249Z,11.83
2022-10-01T13:11:41.488Z,11.99
2022-10-01T13:14:16.039Z,11.56
2022-10-01T13:17:09.007Z,11.44
2022-10-01T13:19:38.759Z,11.36
2022-10-01T13:22:14.968Z,11.48
2022-10-01T13:25:00.851Z,11.54
2022-10-01T13:27:39.203Z,11.27
2022-10-01T13:30:18.393Z,11.35
2022-10-01T13:32:52.826Z,11.38
2022-10-01T13:35:35.746Z,11.51
2022-10-01T13:38:37.973Z,10.99
2022-10-01T13:41:07.727Z,10.92
2022-10-01T13:43:35.390Z,11.00
2022-10-01T13:46:12.892Z,11.27
2022-10-01T13:48:48.185Z,11.07
2022-10-01T13:51:15.619Z,11.06
2022-10-01T13:53:42.204Z,11.28
2022-10-01T13:56:14.463Z,11.16
2022-10-01T13:58:46.140Z,10.96
2022-10-01T14:01:24.329Z,11.06
2022-10-01T14:03:51.248Z,11.17
2022-10-01T14:06:26.063Z,10.92
2022-10-01T14:09:10.880Z,11.25
2022-10-01T14:12:00.347Z,11.26
2022-10-01T14:14:53.596Z,11.24
2022-10-01T14:17:24.611Z,10.99
2022-10-01T14:19:51.360Z,11.07
2022-10-01T14:22:26.816Z,11.08
2022-10-01T14:25:12.319Z,11.02
2022-10-01T14:27:48.428Z,11.18
2022-10-01T14:30:25.005Z,11.02
2022-10-01T14:33:28.771Z,11.17
2022-10-01T14:36:01.609Z,11.11
2022-10-01T14:38:28.525Z,10.93
2022-10-01T14:40:55.969Z,10.78
2022-10-01T14:43:31.071Z,11.21
2022-10-01T14:46:01.810Z,11.00
2022-10-01T14:48:34.047Z,11.20
2022-10-01T14:51:03.362Z,10.96
2022-10-01T14:53:38.456Z,11.09
2022-10-01T14:56:12.632Z,11.16
2022-10-01T14:58:43.434Z,11.42
2022-10-01T15:01:21.371Z,11.42
2022-10-01T15:03:49.645Z,11.29
2022-10-01T15:06:26.147Z,11.17
2022-10-01T15:08:55.000Z,11.19
2022-10-01T15:11:30.230Z,11.17
2022-10-01T15:14:03.591Z,11.18
2022-10-01T15:16:30.716Z,11.24
2022-10-01T15:19:00.844Z,10.94
2022-10-01T15:21:35.105Z,10.78
2022-10-01T15:24:04.398Z,10.97
2022-10-01T15:26:33.281Z,10.85
2022-10-01T15:29:04.820Z,10.82
2022-10-01T15:31:32.654Z,10.90
2022-10-01T15:34:02.735Z,10.89
2022-10-01T15:36:29.728Z,10.86
2022-10-01T15:38:57.038Z,10.62
2022-10-01T15:41:39.882Z,10.88
2022-10-01T15:44:06.700Z,11.07
2022-10-01T15:46:35.326Z,10.92
2022-10-01T15:49:26.175Z,11.12
2022-10-01T15:52:20.391Z,10.97
2022-10-01T15:54:48.420Z,11.02
2022-10-01T15:57:20.294Z,11.10
2022-10-01T15:59:48.854Z,11.46
2022-10-01T16:02:21.994Z,11.38
2022-10-01T16:04:52.806Z,11.00
2022-10-01T16:07:28.726Z,10.99
2022-10-01T16:10:12.302Z,11.25
2022-10-01T16:12:39.056Z,11.02
2022-10-01T16:15:22.911Z,11.15
2022-10-01T16:18:02.491Z,10.98
2022-10-01T16:20:35.187Z,11.05
2022-10-01T16:23:33.068Z,10.97
2022-10-01T16:26:00.327Z,11.24
2022-10-01T16:28:31.234Z,11.00
2022-10-01T16:30:58.239Z,10.90
2022-10-01T16:33:26.657Z,11.08
2022-10-01T16:35:56.157Z,11.13
2022-10-01T16:38:22.794Z,11.12
2022-10-01T16:40:50.680Z,11.11
2022-10-01T16:43:24.390Z,10.88
2022-10-01T16:45:51.402Z,11.07
2022-10-01T16:48:20.491Z,11.02
2022-10-01T16:50:47.351Z,10.90
2022-10-01T16:53:18.272Z,11.09
2022-10-01T16:55:46.217Z,11.08
2022-10-01T16:58:13.704Z,10.78
2022-10-01T17:00:40.662Z,10.86
2022-10-01T17:03:14.051Z,10.91
2022-10-01T17:05:41.206Z,11.05
2022-10-01T17:08:14.706Z,10.78
2022-10-01T17:10:53.023Z,10.70
2022-10-01T17:13:19.798Z,10.74
2022-10-01T17:15:48.444Z,10.91
2022-10-01T17:18:15.347Z,10.71
2022-10-01T17:20:42.020Z,10.79
2022-10-01T17:23:11.999Z,11.00
2022-10-01T17:25:39.763Z,10.93
2022-10-01T17:28:09.133Z,10.97
2022-10-01T17:30:40.469Z,11.17
2022-10-01T17:33:09.604Z,11.27
2022-10-01T17:35:44.327Z,11.11
2022-10-01T17:38:12.772Z,11.09
2022-10-01T17:40:42.654Z,11.26
2022-10-01T17:43:14.824Z,11.13
2022-10-01T17:45:42.680Z,11.17
2022-10-01T17:48:10.097Z,11.14
2022-10-01T17:50:43.806Z,10.99
2022-10-01T17:53:12.523Z,11.07
2022-10-01T17:55:41.241Z,11.24
2022-10-01T17:58:08.440Z,10.88
2022-10-01T18:00:35.139Z,10.90
2022-10-01T18:03:01.887Z,11.18
2022-10-01T18:05:32.469Z,11.19
2022-10-01T18:07:59.953Z,11.16
2022-10-01T18:10:26.714Z,11.22
2022-10-01T18:12:54.028Z,11.18
2022-10-01T18:15:23.939Z,11.24
2022-10-01T18:18:48.493Z,11.15
2022-10-01T18:20:39.679Z,10.96
2022-10-01T18:23:06.394Z,11.02
2022-10-01T18:25:33.052Z,11.13
2022-10-01T18:28:03.735Z,11.13
2022-10-01T18:30:30.961Z,10.95
2022-10-01T18:32:59.057Z,10.81
2022-10-01T18:35:35.290Z,10.98
2022-10-01T18:38:20.579Z,11.13
2022-10-01T18:40:55.416Z,11.20
2022-10-01T18:43:26.183Z,11.26
2022-10-01T18:45:59.804Z,11.00
2022-10-01T18:48:32.524Z,11.17
2022-10-01T18:51:12.855Z,11.20
2022-10-01T18:53:43.833Z,11.07
2022-10-01T18:56:25.765Z,11.14
2022-10-01T18:59:20.034Z,10.99
2022-10-01T19:01:50.523Z,10.87
2022-10-01T19:04:26.432Z,11.04
2022-10-01T19:07:08.091Z,11.19
2022-10-01T19:09:46.627Z,11.19
2022-10-01T19:12:53.793Z,11.13
2022-10-01T19:16:01.237Z,11.22
2022-10-01T19:18:51.857Z,11.47
2022-10-01T19:21:48.705Z,11.22
2022-10-01T19:24:28.470Z,11.52
2022-10-01T19:27:14.784Z,11.46
2022-10-01T19:29:44.451Z,11.32
2022-10-01T19:32:24.310Z,11.09
2022-10-01T19:35:14.093Z,11.19
2022-10-01T19:37:55.175Z,11.36
2022-10-01T19:40:55.843Z,11.45
2022-10-01T19:43:47.472Z,11.16
2022-10-01T19:46:27.837Z,11.13
2022-10-01T19:49:09.573Z,11.33
2022-10-01T19:51:55.451Z,10.94
2022-10-01T19:54:27.541Z,11.25
2022-10-01T19:57:00.388Z,11.04
2022-10-01T19:59:28.725Z,11.13
2022-10-01T20:02:03.183Z,11.08
2022-10-01T20:05:30.254Z,11.15
2022-10-01T20:08:06.667Z,11.00
2022-10-01T20:10:41.558Z,11.16
2022-10-01T20:13:23.146Z,11.07
2022-10-01T20:16:12.647Z,11.04
2022-10-01T20:19:17.067Z,11.22
2022-10-01T20:22:06.320Z,11.22
2022-10-01T20:25:01.704Z,11.30
2022-10-01T20:27:37.088Z,11.11
2022-10-01T20:30:11.986Z,11.17
2022-10-01T20:33:00.797Z,11.22
2022-10-01T20:35:30.421Z,11.18
2022-10-01T20:38:08.940Z,11.30
2022-10-01T20:40:35.546Z,11.30
2022-10-01T20:43:02.044Z,11.12
2022-10-01T20:45:36.703Z,11.18
2022-10-01T20:48:30.411Z,10.97
2022-10-01T20:51:10.317Z,11.08
2022-10-01T20:53:45.094Z,11.28
2022-10-01T20:56:16.319Z,11.17
2022-10-01T20:59:25.651Z,11.11
2022-10-01T21:02:19.082Z,11.04
2022-10-01T21:04:52.996Z,11.21
2022-10-01T21:07:42.298Z,11.22
2022-10-01T21:10:30.811Z,11.30
2022-10-01T21:13:08.482Z,11.18
2022-10-01T21:15:52.050Z,11.25
2022-10-01T21:18:41.187Z,11.12
2022-10-01T21:21:12.805Z,11.08
2022-10-01T21:24:01.280Z,11.07
2022-10-01T21:26:52.413Z,11.28
2022-10-01T21:29:37.977Z,11.28
2022-10-01T21:32:36.615Z,11.01
2022-10-01T21:35:36.400Z,11.23
2022-10-01T21:38:25.976Z,11.03
2022-10-01T21:41:48.136Z,11.13
2022-10-01T21:44:23.886Z,10.98
2022-10-01T21:47:01.009Z,11.29
2022-10-01T21:49:52.847Z,11.24
2022-10-01T21:52:31.785Z,11.08
2022-10-01T21:55:17.237Z,11.05
2022-10-01T21:57:51.637Z,11.00
2022-10-01T22:00:24.437Z,11.10
2022-10-01T22:03:17.359Z,10.98
2022-10-01T22:06:16.305Z,11.06
2022-10-01T22:09:00.251Z,10.97
2022-10-01T22:11:31.842Z,11.00
2022-10-01T22:14:02.222Z,11.08
2022-10-01T22:16:40.880Z,11.08
2022-10-01T22:19:14.196Z,10.89
2022-10-01T22:21:47.110Z,10.89
2022-10-01T22:24:18.314Z,10.82
2022-10-01T22:27:01.778Z,10.81
2022-10-01T22:29:32.316Z,10.94
2022-10-01T22:32:03.582Z,10.81
2022-10-01T22:34:38.958Z,10.72
2022-10-01T22:37:12.864Z,10.75
2022-10-01T22:39:47.666Z,10.82
2022-10-01T22:42:24.366Z,10.83
2022-10-01T22:44:51.234Z,10.82
2022-10-01T22:47:20.647Z,10.80
2022-10-01T22:50:05.862Z,10.69
2022-10-01T22:52:49.316Z,10.81
2022-10-01T22:55:40.928Z,10.83
2022-10-01T22:58:29.283Z,10.69
2022-10-01T23:01:00.673Z,10.73
2022-10-01T23:03:33.607Z,10.73
2022-10-01T23:06:11.410Z,10.59
2022-10-01T23:08:56.818Z,10.40
2022-10-01T23:11:30.193Z,10.37
2022-10-01T23:14:05.695Z,10.23
2022-10-01T23:16:52.651Z,10.32
2022-10-01T23:19:47.370Z,10.26
2022-10-01T23:22:41.559Z,10.24
2022-10-01T23:25:32.393Z,10.25
2022-10-01T23:28:26.469Z,10.00
2022-10-01T23:31:14.918Z,10.11
2022-10-01T23:34:03.113Z,10.17
2022-10-01T23:36:33.200Z,10.11
2022-10-01T23:39:06.082Z,10.05
2022-10-01T23:41:48.044Z,10.17
2022-10-01T23:44:25.538Z,10.25
2022-10-01T23:46:55.450Z,10.23
2022-10-01T23:49:28.725Z,10.27
2022-10-01T23:52:02.482Z,10.27
2022-10-01T23:54:50.700Z,10.16
2022-10-01T23:57:36.772Z,10.18
